createdAt,value
2018-09-30T00:00:46.403Z,20.30
2018-09-30T00:01:51.716Z,20.30
2018-09-30T00:02:57.020Z,20.30
2018-09-30T00:04:02.325Z,20.30
2018-09-30T00:05:07.651Z,20.30
2018-09-30T00:06:13.019Z,20.30
2018-09-30T00:07:18.269Z,20.30
2018-09-30T00:08:23.533Z,20.30
2018-09-30T00:09:28.925Z,20.30
2018-09-30T00:10:34.260Z,20.30
2018-09-30T00:11:39.599Z,20.30
2018-09-30T00:12:45.053Z,20.30
2018-09-30T00:13:50.413Z,20.30
2018-09-30T00:14:55.728Z,20.30
2018-09-30T00:16:01.068Z,20.30
2018-09-30T00:17:06.362Z,20.30
2018-09-30T00:18:12.412Z,20.30
2018-09-30T00:19:18.231Z,20.30
2018-09-30T00:20:24.090Z,20.30
2018-09-30T00:21:29.357Z,20.20
2018-09-30T00:22:34.684Z,20.20
2018-09-30T00:23:40.044Z,20.20
2018-09-30T00:24:45.490Z,20.20
2018-09-30T00:25:50.777Z,20.20
2018-09-30T00:26:56.060Z,20.20
2018-09-30T00:28:01.352Z,20.20
2018-09-30T00:29:06.590Z,20.20
2018-09-30T00:30:11.894Z,20.20
2018-09-30T00:31:17.183Z,20.30
2018-09-30T00:32:22.691Z,20.20
2018-09-30T00:33:27.941Z,20.20
2018-09-30T00:34:33.272Z,20.20
2018-09-30T00:35:38.628Z,20.20
2018-09-30T00:36:43.890Z,20.20
2018-09-30T00:37:49.329Z,20.20
2018-09-30T00:38:54.641Z,20.20
2018-09-30T00:39:59.982Z,20.20
2018-09-30T00:41:05.261Z,20.20
2018-09-30T00:42:10.529Z,20.20
2018-09-30T00:43:15.832Z,20.20
2018-09-30T00:44:21.093Z,20.20
2018-09-30T00:45:26.408Z,20.20
2018-09-30T00:46:31.741Z,20.20
2018-09-30T00:47:37.007Z,20.20
2018-09-30T00:48:42.257Z,20.20
2018-09-30T00:49:47.496Z,20.20
2018-09-30T00:50:52.903Z,20.20
2018-09-30T00:51:58.273Z,20.20
2018-09-30T00:53:03.481Z,20.20
2018-09-30T00:54:08.731Z,20.20
2018-09-30T00:55:13.986Z,20.20
2018-09-30T00:56:19.252Z,20.20
2018-09-30T00:57:24.496Z,20.20
2018-09-30T00:58:29.793Z,20.20
2018-09-30T00:59:35.041Z,20.20
2018-09-30T01:00:40.314Z,20.20
2018-09-30T01:01:45.603Z,20.20
2018-09-30T01:02:50.840Z,20.20
2018-09-30T01:03:56.077Z,20.20
2018-09-30T01:05:01.385Z,20.20
2018-09-30T01:06:06.619Z,20.20
2018-09-30T01:07:11.944Z,20.20
2018-09-30T01:08:17.243Z,20.20
2018-09-30T01:09:22.538Z,20.20
2018-09-30T01:10:27.852Z,20.20
2018-09-30T01:11:33.087Z,20.20
2018-09-30T01:12:38.335Z,20.20
2018-09-30T01:13:43.632Z,20.20
2018-09-30T01:14:48.951Z,20.20
2018-09-30T01:15:54.191Z,20.20
2018-09-30T01:16:59.421Z,20.20
2018-09-30T01:18:04.656Z,20.20
2018-09-30T01:19:09.918Z,20.20
2018-09-30T01:20:15.228Z,20.20
2018-09-30T01:21:20.526Z,20.20
2018-09-30T01:22:25.790Z,20.20
2018-09-30T01:23:30.981Z,20.20
2018-09-30T01:24:36.212Z,20.20
2018-09-30T01:25:41.485Z,20.20
2018-09-30T01:26:46.795Z,20.20
2018-09-30T01:27:52.087Z,20.20
2018-09-30T01:28:57.433Z,20.20
2018-09-30T01:30:02.669Z,20.20
2018-09-30T01:31:07.941Z,20.20
2018-09-30T01:32:13.268Z,20.20
2018-09-30T01:33:18.559Z,20.20
2018-09-30T01:34:23.870Z,20.20
2018-09-30T01:35:29.116Z,20.20
2018-09-30T01:36:34.402Z,20.20
2018-09-30T01:37:39.787Z,20.20
2018-09-30T01:38:45.076Z,20.10
2018-09-30T01:39:50.314Z,20.10
2018-09-30T01:40:55.571Z,20.10
2018-09-30T01:42:00.792Z,20.10
2018-09-30T01:43:06.052Z,20.10
2018-09-30T01:44:11.283Z,20.10
2018-09-30T01:45:16.588Z,20.10
2018-09-30T01:46:21.883Z,20.10
2018-09-30T01:47:27.218Z,20.10
2018-09-30T01:48:32.457Z,20.10
2018-09-30T01:49:37.688Z,20.10
2018-09-30T01:50:43.287Z,20.10
2018-09-30T01:51:48.789Z,20.10
2018-09-30T01:52:54.057Z,20.10
2018-09-30T01:53:59.425Z,20.10
2018-09-30T01:55:04.674Z,20.10
2018-09-30T01:56:09.903Z,20.10
2018-09-30T01:57:15.132Z,20.10
2018-09-30T01:58:20.381Z,20.10
2018-09-30T01:59:25.675Z,20.10
2018-09-30T02:00:30.964Z,20.10
2018-09-30T02:01:36.236Z,20.10
2018-09-30T02:02:41.491Z,20.10
2018-09-30T02:03:46.816Z,20.10
2018-09-30T02:04:52.049Z,20.10
2018-09-30T02:05:57.319Z,20.10
2018-09-30T02:07:02.646Z,20.10
2018-09-30T02:08:07.916Z,20.10
2018-09-30T02:09:13.161Z,20.10
2018-09-30T02:10:18.399Z,20.10
2018-09-30T02:11:23.709Z,20.10
2018-09-30T02:12:29.000Z,20.10
2018-09-30T02:13:34.272Z,20.10
2018-09-30T02:14:39.660Z,20.10
2018-09-30T02:15:44.911Z,20.10
2018-09-30T02:16:50.160Z,20.10
2018-09-30T02:17:55.432Z,20.10
2018-09-30T02:19:00.742Z,20.20
2018-09-30T02:20:06.058Z,20.10
2018-09-30T02:21:11.385Z,20.10
2018-09-30T02:22:16.657Z,20.10
2018-09-30T02:23:22.032Z,20.10
2018-09-30T02:24:27.464Z,20.10
2018-09-30T02:25:32.713Z,20.10
2018-09-30T02:26:38.025Z,20.10
2018-09-30T02:27:43.338Z,20.10
2018-09-30T02:28:48.648Z,20.10
2018-09-30T02:29:53.938Z,20.10
2018-09-30T02:30:59.239Z,20.10
2018-09-30T02:32:04.562Z,20.10
2018-09-30T02:33:09.897Z,20.10
2018-09-30T02:34:15.173Z,20.10
2018-09-30T02:35:20.460Z,20.10
2018-09-30T02:36:25.782Z,20.10
2018-09-30T02:37:31.070Z,20.10
2018-09-30T02:38:36.339Z,20.10
2018-09-30T02:39:41.696Z,20.10
2018-09-30T02:40:47.042Z,20.10
2018-09-30T02:41:52.447Z,20.10
2018-09-30T02:42:57.828Z,20.10
2018-09-30T02:44:03.112Z,20.10
2018-09-30T02:45:08.480Z,20.10
2018-09-30T02:46:13.741Z,20.10
2018-09-30T02:47:19.052Z,20.10
2018-09-30T02:48:24.351Z,20.10
2018-09-30T02:49:29.681Z,20.10
2018-09-30T02:50:34.926Z,20.10
2018-09-30T02:51:40.188Z,20.10
2018-09-30T02:52:45.489Z,20.10
2018-09-30T02:53:50.816Z,20.10
2018-09-30T02:54:56.274Z,20.10
2018-09-30T02:56:01.641Z,20.10
2018-09-30T02:57:06.891Z,20.10
2018-09-30T02:58:12.211Z,20.10
2018-09-30T02:59:17.539Z,20.10
2018-09-30T03:00:22.827Z,20.10
2018-09-30T03:01:28.115Z,20.10
2018-09-30T03:02:33.344Z,20.10
2018-09-30T03:03:38.621Z,20.10
2018-09-30T03:04:43.871Z,20.10
2018-09-30T03:05:49.116Z,20.10
2018-09-30T03:06:54.406Z,20.10
2018-09-30T03:07:59.783Z,20.10
2018-09-30T03:09:05.053Z,20.10
2018-09-30T03:10:10.365Z,20.10
2018-09-30T03:11:15.742Z,20.10
2018-09-30T03:12:20.968Z,20.10
2018-09-30T03:13:26.243Z,20.10
2018-09-30T03:14:31.552Z,20.10
2018-09-30T03:15:36.937Z,20.10
2018-09-30T03:16:42.213Z,20.00
2018-09-30T03:17:47.523Z,20.10
2018-09-30T03:18:52.799Z,20.10
2018-09-30T03:19:58.096Z,20.10
2018-09-30T03:21:03.477Z,20.10
2018-09-30T03:22:08.778Z,20.10
2018-09-30T03:23:14.094Z,20.10
2018-09-30T03:24:19.349Z,20.10
2018-09-30T03:25:24.767Z,20.10
2018-09-30T03:26:30.046Z,20.10
2018-09-30T03:27:35.498Z,20.10
2018-09-30T03:28:40.777Z,20.10
2018-09-30T03:29:46.037Z,20.00
2018-09-30T03:30:51.318Z,20.10
2018-09-30T03:31:56.822Z,20.10
2018-09-30T03:33:02.096Z,20.00
2018-09-30T03:34:07.365Z,19.90
2018-09-30T03:35:12.621Z,19.80
2018-09-30T03:36:17.895Z,19.70
2018-09-30T03:37:23.136Z,19.60
2018-09-30T03:38:28.525Z,19.60
2018-09-30T03:39:33.835Z,19.50
2018-09-30T03:40:39.109Z,19.50
2018-09-30T03:41:44.483Z,19.60
2018-09-30T03:42:49.870Z,19.50
2018-09-30T03:43:55.118Z,19.60
2018-09-30T03:45:00.370Z,19.70
2018-09-30T03:46:07.838Z,19.70
2018-09-30T03:47:13.124Z,19.70
2018-09-30T03:48:18.460Z,19.80
2018-09-30T03:49:23.821Z,19.80
2018-09-30T03:50:29.130Z,19.80
2018-09-30T03:51:37.817Z,19.90
2018-09-30T03:52:43.078Z,19.90
2018-09-30T03:53:48.373Z,19.90
2018-09-30T03:54:53.647Z,19.90
2018-09-30T03:55:58.996Z,19.90
2018-09-30T03:57:04.351Z,19.90
2018-09-30T03:58:09.643Z,19.90
2018-09-30T03:59:15.079Z,19.90
2018-09-30T04:00:20.448Z,19.90
2018-09-30T04:01:25.703Z,19.90
2018-09-30T04:02:31.111Z,20.00
2018-09-30T04:03:36.331Z,20.00
2018-09-30T04:04:41.737Z,20.00
2018-09-30T04:05:47.143Z,20.00
2018-09-30T04:06:52.575Z,20.00
2018-09-30T04:07:57.927Z,20.00
2018-09-30T04:09:03.171Z,20.00
2018-09-30T04:10:08.565Z,20.00
2018-09-30T04:11:13.812Z,20.00
2018-09-30T04:12:19.133Z,20.00
2018-09-30T04:13:24.377Z,20.00
2018-09-30T04:14:29.674Z,20.00
2018-09-30T04:15:34.919Z,20.00
2018-09-30T04:16:40.298Z,20.00
2018-09-30T04:17:45.568Z,20.00
2018-09-30T04:18:50.806Z,20.00
2018-09-30T04:19:56.059Z,20.00
2018-09-30T04:21:01.391Z,20.00
2018-09-30T04:22:06.617Z,20.00
2018-09-30T04:23:11.923Z,20.00
2018-09-30T04:24:17.180Z,20.00
2018-09-30T04:25:22.490Z,20.00
2018-09-30T04:26:27.784Z,20.00
2018-09-30T04:27:33.104Z,20.00
2018-09-30T04:28:38.363Z,20.00
2018-09-30T04:29:43.639Z,20.00
2018-09-30T04:30:48.894Z,20.00
2018-09-30T04:31:54.180Z,20.00
2018-09-30T04:32:59.491Z,20.00
2018-09-30T04:34:04.833Z,20.00
2018-09-30T04:35:10.073Z,20.00
2018-09-30T04:36:15.340Z,20.00
2018-09-30T04:37:20.632Z,20.00
2018-09-30T04:38:25.962Z,20.00
2018-09-30T04:39:31.388Z,20.00
2018-09-30T04:40:36.872Z,20.00
2018-09-30T04:41:42.322Z,20.00
2018-09-30T04:42:47.618Z,20.00
2018-09-30T04:43:52.910Z,20.00
2018-09-30T04:44:58.284Z,20.10
2018-09-30T04:46:03.878Z,20.10
2018-09-30T04:47:09.904Z,20.10
2018-09-30T04:48:15.503Z,20.10
2018-09-30T04:49:20.805Z,20.10
2018-09-30T04:50:26.231Z,20.10
2018-09-30T04:51:31.603Z,20.10
2018-09-30T04:52:36.862Z,20.10
2018-09-30T04:53:42.149Z,20.10
2018-09-30T04:54:47.723Z,20.10
2018-09-30T04:55:53.114Z,20.10
2018-09-30T04:56:58.593Z,20.10
2018-09-30T04:58:04.100Z,20.10
2018-09-30T04:59:09.356Z,20.10
2018-09-30T05:00:14.742Z,20.10
2018-09-30T05:01:20.093Z,20.10
2018-09-30T05:02:25.426Z,20.10
2018-09-30T05:03:30.847Z,20.10
2018-09-30T05:04:36.150Z,20.10
2018-09-30T05:05:41.607Z,20.10
2018-09-30T05:06:46.959Z,20.10
2018-09-30T05:07:52.240Z,20.10
2018-09-30T05:08:57.608Z,20.10
2018-09-30T05:10:03.179Z,20.10
2018-09-30T05:11:08.528Z,20.10
2018-09-30T05:12:13.796Z,20.10
2018-09-30T05:13:19.105Z,20.10
2018-09-30T05:14:24.376Z,20.10
2018-09-30T05:15:29.818Z,20.20
2018-09-30T05:16:35.196Z,20.10
2018-09-30T05:17:40.661Z,20.20
2018-09-30T05:18:46.093Z,20.20
2018-09-30T05:19:51.473Z,20.10
2018-09-30T05:20:56.779Z,20.10
2018-09-30T05:22:02.111Z,20.10
2018-09-30T05:23:07.566Z,20.10
2018-09-30T05:24:12.742Z,20.10
2018-09-30T05:25:18.109Z,20.10
2018-09-30T05:26:23.502Z,20.10
2018-09-30T05:27:28.879Z,20.10
2018-09-30T05:28:34.208Z,20.10
2018-09-30T05:29:39.509Z,20.10
2018-09-30T05:30:44.830Z,20.10
2018-09-30T05:31:50.274Z,20.10
2018-09-30T05:32:55.559Z,20.10
2018-09-30T05:34:00.868Z,20.10
2018-09-30T05:35:06.245Z,20.10
2018-09-30T05:36:11.792Z,20.10
2018-09-30T05:37:17.068Z,20.10
2018-09-30T05:38:22.245Z,20.10
2018-09-30T05:39:27.664Z,20.10
2018-09-30T05:40:32.954Z,20.10
2018-09-30T05:41:38.276Z,20.10
2018-09-30T05:42:45.101Z,20.10
2018-09-30T05:43:50.379Z,20.10
2018-09-30T05:44:55.729Z,20.10
2018-09-30T05:46:01.169Z,20.10
2018-09-30T05:47:06.328Z,20.10
2018-09-30T05:48:11.649Z,20.10
2018-09-30T05:49:17.078Z,20.10
2018-09-30T05:50:22.386Z,20.10
2018-09-30T05:51:27.738Z,20.10
2018-09-30T05:52:33.122Z,20.20
2018-09-30T05:53:38.492Z,20.20
2018-09-30T05:54:43.877Z,20.20
2018-09-30T05:55:49.276Z,20.20
2018-09-30T05:56:54.683Z,20.20
2018-09-30T05:58:00.216Z,20.20
2018-09-30T05:59:05.423Z,20.20
2018-09-30T06:00:10.740Z,20.20
2018-09-30T06:01:16.131Z,20.20
2018-09-30T06:02:23.282Z,20.20
2018-09-30T06:03:28.603Z,20.20
2018-09-30T06:04:33.927Z,20.20
2018-09-30T06:05:39.280Z,20.20
2018-09-30T06:06:44.636Z,20.20
2018-09-30T06:07:50.290Z,20.20
2018-09-30T06:08:55.587Z,20.20
2018-09-30T06:10:01.044Z,20.20
2018-09-30T06:11:06.326Z,20.20
2018-09-30T06:12:11.679Z,20.20
2018-09-30T06:13:17.034Z,20.20
2018-09-30T06:14:22.567Z,20.20
2018-09-30T06:15:27.908Z,20.20
2018-09-30T06:16:33.272Z,20.20
2018-09-30T06:17:38.581Z,20.20
2018-09-30T06:18:43.959Z,20.20
2018-09-30T06:19:49.378Z,20.20
2018-09-30T06:20:55.868Z,20.20
2018-09-30T06:22:01.326Z,20.20
2018-09-30T06:23:07.087Z,20.20
2018-09-30T06:24:12.570Z,20.20
2018-09-30T06:25:17.708Z,20.30
2018-09-30T06:26:23.012Z,20.30
2018-09-30T06:27:28.312Z,20.30
2018-09-30T06:28:34.442Z,20.30
2018-09-30T06:29:39.747Z,20.30
2018-09-30T06:30:45.152Z,20.30
2018-09-30T06:31:50.546Z,20.30
2018-09-30T06:32:55.908Z,20.30
2018-09-30T06:34:01.245Z,20.30
2018-09-30T06:35:06.593Z,20.30
2018-09-30T06:36:13.570Z,20.30
2018-09-30T06:37:18.792Z,20.30
2018-09-30T06:38:24.121Z,20.20
2018-09-30T06:39:29.829Z,20.30
2018-09-30T06:40:35.268Z,20.30
2018-09-30T06:41:40.531Z,20.20
2018-09-30T06:42:45.832Z,20.20
2018-09-30T06:43:51.197Z,20.20
2018-09-30T06:44:56.660Z,20.30
2018-09-30T06:46:02.026Z,20.20
2018-09-30T06:47:07.298Z,20.30
2018-09-30T06:48:12.434Z,20.20
2018-09-30T06:49:19.643Z,20.30
2018-09-30T06:50:25.129Z,20.30
2018-09-30T06:51:30.520Z,20.30
2018-09-30T06:52:35.940Z,20.30
2018-09-30T06:53:41.219Z,20.30
2018-09-30T06:54:46.468Z,20.20
2018-09-30T06:55:51.901Z,20.20
2018-09-30T06:56:57.362Z,20.20
2018-09-30T06:58:02.672Z,20.20
2018-09-30T06:59:08.036Z,20.20
2018-09-30T07:00:13.317Z,20.20
2018-09-30T07:01:18.636Z,20.20
2018-09-30T07:02:23.894Z,20.20
2018-09-30T07:03:29.164Z,20.20
2018-09-30T07:04:34.414Z,20.20
2018-09-30T07:05:39.704Z,20.20
2018-09-30T07:06:45.223Z,20.20
2018-09-30T07:07:50.525Z,20.20
2018-09-30T07:08:55.850Z,20.20
2018-09-30T07:10:01.169Z,20.10
2018-09-30T07:11:06.569Z,20.10
2018-09-30T07:12:11.873Z,20.10
2018-09-30T07:13:17.237Z,20.10
2018-09-30T07:14:22.644Z,20.10
2018-09-30T07:15:28.015Z,20.10
2018-09-30T07:16:33.392Z,20.20
2018-09-30T07:17:39.200Z,20.10
2018-09-30T07:18:44.571Z,20.10
2018-09-30T07:19:49.947Z,20.10
2018-09-30T07:20:55.352Z,20.10
2018-09-30T07:22:00.622Z,20.10
2018-09-30T07:23:05.935Z,20.10
2018-09-30T07:24:11.266Z,20.10
2018-09-30T07:25:16.595Z,20.10
2018-09-30T07:26:21.896Z,20.10
2018-09-30T07:27:27.356Z,20.10
2018-09-30T07:28:33.730Z,20.20
2018-09-30T07:29:39.155Z,20.20
2018-09-30T07:30:44.650Z,20.20
2018-09-30T07:31:50.023Z,20.20
2018-09-30T07:32:55.354Z,20.20
2018-09-30T07:34:00.701Z,20.20
2018-09-30T07:35:06.080Z,20.20
2018-09-30T07:36:11.365Z,20.20
2018-09-30T07:37:16.703Z,20.20
2018-09-30T07:38:22.027Z,20.20
2018-09-30T07:39:27.429Z,20.20
2018-09-30T07:40:32.752Z,20.20
2018-09-30T07:41:38.133Z,20.20
2018-09-30T07:42:43.619Z,20.20
2018-09-30T07:43:49.458Z,20.20
2018-09-30T07:44:54.795Z,20.20
2018-09-30T07:46:00.275Z,20.20
2018-09-30T07:47:05.631Z,20.20
2018-09-30T07:48:11.041Z,20.20
2018-09-30T07:49:16.708Z,20.20
2018-09-30T07:50:22.171Z,20.20
2018-09-30T07:51:27.691Z,20.20
2018-09-30T07:52:33.120Z,20.20
2018-09-30T07:53:38.554Z,20.20
2018-09-30T07:54:43.852Z,20.20
2018-09-30T07:55:49.333Z,20.20
2018-09-30T07:56:54.906Z,20.20
2018-09-30T07:58:00.603Z,20.20
2018-09-30T07:59:06.100Z,20.20
2018-09-30T08:00:11.463Z,20.20
2018-09-30T08:01:17.031Z,20.20
2018-09-30T08:02:22.509Z,20.20
2018-09-30T08:03:28.061Z,20.20
2018-09-30T08:04:33.720Z,20.20
2018-09-30T08:05:39.142Z,20.20
2018-09-30T08:06:44.651Z,20.30
2018-09-30T08:07:50.094Z,20.30
2018-09-30T08:08:55.491Z,20.30
2018-09-30T08:10:00.878Z,20.30
2018-09-30T08:11:06.409Z,20.30
2018-09-30T08:12:11.895Z,20.30
2018-09-30T08:13:17.529Z,20.30
2018-09-30T08:14:22.940Z,20.30
2018-09-30T08:15:28.337Z,20.40
2018-09-30T08:16:33.911Z,20.40
2018-09-30T08:17:39.271Z,20.40
2018-09-30T08:18:44.686Z,20.40
2018-09-30T08:19:50.097Z,20.40
2018-09-30T08:20:55.545Z,20.40
2018-09-30T08:22:01.394Z,20.40
2018-09-30T08:23:06.787Z,20.40
2018-09-30T08:24:12.240Z,20.40
2018-09-30T08:25:17.618Z,20.40
2018-09-30T08:26:23.054Z,20.40
2018-09-30T08:27:28.404Z,20.40
2018-09-30T08:28:33.860Z,20.40
2018-09-30T08:29:39.268Z,20.50
2018-09-30T08:30:44.691Z,20.50
2018-09-30T08:31:50.052Z,20.50
2018-09-30T08:32:55.486Z,20.50
2018-09-30T08:34:00.941Z,20.50
2018-09-30T08:35:06.423Z,20.50
2018-09-30T08:36:11.853Z,20.50
2018-09-30T08:37:17.261Z,20.60
2018-09-30T08:38:22.655Z,20.60
2018-09-30T08:39:29.851Z,20.60
2018-09-30T08:40:35.308Z,20.60
2018-09-30T08:41:42.282Z,20.60
2018-09-30T08:42:47.717Z,20.60
2018-09-30T08:43:53.206Z,20.60
2018-09-30T08:44:58.746Z,20.60
2018-09-30T08:46:04.200Z,20.60
2018-09-30T08:47:10.260Z,20.60
2018-09-30T08:48:15.824Z,20.70
2018-09-30T08:49:21.314Z,20.70
2018-09-30T08:50:26.754Z,20.70
2018-09-30T08:51:32.292Z,20.70
2018-09-30T08:52:37.719Z,20.70
2018-09-30T08:53:43.184Z,20.70
2018-09-30T08:54:48.657Z,20.70
2018-09-30T08:55:54.198Z,20.70
2018-09-30T08:56:59.631Z,20.70
2018-09-30T08:58:05.554Z,20.70
2018-09-30T08:59:10.955Z,20.70
2018-09-30T09:00:16.420Z,20.70
2018-09-30T09:01:21.799Z,20.70
2018-09-30T09:02:27.466Z,20.70
2018-09-30T09:03:33.132Z,20.70
2018-09-30T09:04:38.495Z,20.70
2018-09-30T09:05:43.979Z,20.70
2018-09-30T09:06:49.425Z,20.70
2018-09-30T09:07:54.857Z,20.80
2018-09-30T09:09:00.398Z,20.80
2018-09-30T09:10:05.790Z,20.80
2018-09-30T09:11:11.044Z,20.80
2018-09-30T09:12:16.440Z,20.80
2018-09-30T09:13:23.728Z,20.80
2018-09-30T09:14:29.392Z,20.80
2018-09-30T09:15:35.092Z,20.80
2018-09-30T09:16:40.562Z,20.80
2018-09-30T09:17:46.005Z,20.80
2018-09-30T09:18:51.395Z,20.80
2018-09-30T09:19:56.849Z,20.80
2018-09-30T09:21:02.304Z,20.80
2018-09-30T09:22:07.698Z,20.80
2018-09-30T09:23:13.125Z,20.80
2018-09-30T09:24:18.659Z,20.80
2018-09-30T09:25:24.120Z,20.80
2018-09-30T09:26:29.593Z,20.90
2018-09-30T09:27:35.054Z,20.90
2018-09-30T09:28:40.500Z,20.90
2018-09-30T09:29:45.945Z,20.90
2018-09-30T09:30:51.371Z,20.90
2018-09-30T09:31:56.786Z,20.90
2018-09-30T09:33:02.415Z,21.00
2018-09-30T09:34:07.844Z,21.00
2018-09-30T09:35:13.292Z,21.00
2018-09-30T09:36:18.888Z,21.00
2018-09-30T09:37:24.296Z,21.00
2018-09-30T09:38:29.802Z,21.00
2018-09-30T09:39:35.171Z,21.00
2018-09-30T09:40:40.566Z,21.00
2018-09-30T09:41:45.945Z,21.10
2018-09-30T09:42:51.316Z,21.00
2018-09-30T09:43:56.724Z,21.00
2018-09-30T09:45:02.259Z,21.00
2018-09-30T09:46:07.677Z,21.00
2018-09-30T09:47:13.661Z,21.00
2018-09-30T09:48:19.199Z,21.00
2018-09-30T09:49:24.593Z,21.00
2018-09-30T09:50:30.048Z,21.00
2018-09-30T09:51:35.514Z,21.00
2018-09-30T09:52:41.126Z,21.00
2018-09-30T09:53:46.432Z,21.00
2018-09-30T09:54:51.711Z,21.10
2018-09-30T09:55:57.228Z,21.10
2018-09-30T09:57:02.703Z,21.20
2018-09-30T09:58:08.185Z,21.20
2018-09-30T09:59:13.715Z,21.30
2018-09-30T10:00:19.298Z,21.30
2018-09-30T10:01:24.809Z,21.30
2018-09-30T10:02:30.298Z,21.40
2018-09-30T10:03:35.575Z,21.40
2018-09-30T10:04:41.010Z,21.30
2018-09-30T10:05:46.345Z,21.40
2018-09-30T10:06:51.698Z,21.40
2018-09-30T10:07:57.212Z,21.40
2018-09-30T10:09:02.567Z,21.50
2018-09-30T10:10:08.320Z,21.50
2018-09-30T10:11:13.784Z,21.50
2018-09-30T10:12:19.149Z,21.50
2018-09-30T10:13:24.610Z,21.50
2018-09-30T10:14:30.121Z,21.50
2018-09-30T10:15:35.469Z,21.60
2018-09-30T10:16:40.731Z,21.60
2018-09-30T10:17:46.145Z,21.70
2018-09-30T10:18:51.464Z,21.70
2018-09-30T10:19:56.857Z,21.70
2018-09-30T10:21:02.299Z,21.70
2018-09-30T10:22:08.346Z,21.70
2018-09-30T10:23:13.731Z,21.70
2018-09-30T10:24:19.312Z,21.60
2018-09-30T10:25:24.684Z,21.60
2018-09-30T10:26:30.227Z,21.60
2018-09-30T10:27:35.700Z,21.60
2018-09-30T10:28:41.025Z,21.50
2018-09-30T10:29:46.526Z,21.50
2018-09-30T10:30:51.958Z,21.50
2018-09-30T10:31:57.394Z,21.50
2018-09-30T10:33:02.868Z,21.50
2018-09-30T10:34:08.365Z,21.40
2018-09-30T10:35:13.782Z,21.40
2018-09-30T10:36:19.213Z,21.40
2018-09-30T10:37:24.597Z,21.40
2018-09-30T10:38:30.702Z,21.40
2018-09-30T10:39:36.090Z,21.40
2018-09-30T10:40:41.649Z,21.40
2018-09-30T10:41:47.229Z,21.40
2018-09-30T10:42:53.364Z,21.30
2018-09-30T10:43:58.980Z,21.30
2018-09-30T10:45:04.466Z,21.30
2018-09-30T10:46:09.912Z,21.30
2018-09-30T10:47:16.249Z,21.30
2018-09-30T10:48:21.671Z,21.30
2018-09-30T10:49:27.004Z,21.30
2018-09-30T10:50:32.448Z,21.30
2018-09-30T10:51:37.966Z,21.30
2018-09-30T10:52:43.501Z,21.30
2018-09-30T10:53:49.306Z,21.20
2018-09-30T10:54:55.024Z,21.20
2018-09-30T10:56:00.720Z,21.20
2018-09-30T10:57:06.345Z,21.20
2018-09-30T10:58:11.905Z,21.20
2018-09-30T10:59:17.459Z,21.20
2018-09-30T11:00:22.948Z,21.20
2018-09-30T11:01:28.450Z,21.10
2018-09-30T11:02:33.986Z,21.10
2018-09-30T11:03:39.461Z,21.20
2018-09-30T11:04:44.795Z,21.20
2018-09-30T11:05:50.237Z,21.20
2018-09-30T11:06:55.580Z,21.20
2018-09-30T11:08:01.106Z,21.20
2018-09-30T11:09:06.503Z,21.20
2018-09-30T11:10:11.908Z,21.20
2018-09-30T11:11:17.174Z,21.20
2018-09-30T11:12:22.580Z,21.20
2018-09-30T11:13:27.949Z,21.30
2018-09-30T11:14:33.178Z,21.20
2018-09-30T11:15:38.500Z,21.20
2018-09-30T11:16:43.761Z,21.30
2018-09-30T11:17:49.125Z,21.30
2018-09-30T11:18:54.453Z,21.30
2018-09-30T11:19:59.860Z,21.30
2018-09-30T11:21:05.153Z,21.30
2018-09-30T11:22:10.457Z,21.30
2018-09-30T11:23:15.772Z,21.30
2018-09-30T11:24:21.172Z,21.30
2018-09-30T11:25:26.581Z,21.30
2018-09-30T11:26:31.926Z,21.30
2018-09-30T11:27:37.268Z,21.30
2018-09-30T11:28:42.812Z,21.30
2018-09-30T11:29:48.261Z,21.30
2018-09-30T11:30:53.625Z,21.30
2018-09-30T11:31:59.325Z,21.30
2018-09-30T11:33:04.558Z,21.40
2018-09-30T11:34:09.993Z,21.30
2018-09-30T11:35:15.347Z,21.40
2018-09-30T11:36:20.904Z,21.40
2018-09-30T11:37:26.348Z,21.40
2018-09-30T11:38:31.772Z,21.40
2018-09-30T11:39:37.223Z,21.40
2018-09-30T11:40:42.702Z,21.40
2018-09-30T11:41:48.034Z,21.40
2018-09-30T11:42:53.447Z,21.40
2018-09-30T11:43:58.808Z,21.40
2018-09-30T11:45:04.241Z,21.50
2018-09-30T11:46:09.646Z,21.40
2018-09-30T11:47:15.204Z,21.50
2018-09-30T11:48:20.696Z,21.60
2018-09-30T11:49:26.068Z,21.60
2018-09-30T11:50:31.639Z,21.60
2018-09-30T11:51:37.077Z,21.60
2018-09-30T11:52:42.628Z,21.60
2018-09-30T11:53:48.044Z,21.70
2018-09-30T11:54:53.443Z,21.70
2018-09-30T11:55:58.941Z,21.70
2018-09-30T11:57:04.541Z,21.70
2018-09-30T11:58:09.874Z,21.60
2018-09-30T11:59:15.243Z,21.60
2018-09-30T12:00:20.779Z,21.60
2018-09-30T12:01:26.295Z,21.60
2018-09-30T12:02:31.855Z,21.60
2018-09-30T12:03:37.208Z,21.60
2018-09-30T12:04:42.435Z,21.60
2018-09-30T12:05:47.703Z,21.60
2018-09-30T12:06:53.202Z,21.60
2018-09-30T12:07:58.540Z,21.60
2018-09-30T12:09:03.887Z,21.60
2018-09-30T12:10:09.232Z,21.60
2018-09-30T12:11:14.585Z,21.60
2018-09-30T12:12:20.019Z,21.60
2018-09-30T12:13:25.366Z,21.60
2018-09-30T12:14:30.840Z,21.60
2018-09-30T12:15:36.217Z,21.60
2018-09-30T12:16:41.575Z,21.60
2018-09-30T12:17:48.891Z,21.70
2018-09-30T12:18:54.325Z,21.70
2018-09-30T12:20:01.376Z,21.70
2018-09-30T12:21:09.268Z,21.70
2018-09-30T12:22:17.267Z,21.70
2018-09-30T12:23:24.514Z,21.70
2018-09-30T12:24:31.404Z,21.70
2018-09-30T12:25:37.410Z,21.70
2018-09-30T12:26:44.523Z,21.70
2018-09-30T12:27:51.224Z,21.70
2018-09-30T12:28:57.433Z,21.80
2018-09-30T12:30:03.258Z,21.70
2018-09-30T12:31:10.644Z,21.80
2018-09-30T12:32:18.334Z,21.70
2018-09-30T12:33:23.672Z,21.80
2018-09-30T12:34:30.152Z,21.80
2018-09-30T12:35:35.589Z,21.80
2018-09-30T12:36:40.888Z,21.80
2018-09-30T12:37:46.956Z,21.80
2018-09-30T12:38:52.341Z,21.80
2018-09-30T12:39:57.752Z,21.80
2018-09-30T12:41:03.721Z,21.80
2018-09-30T12:42:09.123Z,21.70
2018-09-30T12:43:14.905Z,21.70
2018-09-30T12:44:21.052Z,21.70
2018-09-30T12:45:26.758Z,21.70
2018-09-30T12:46:32.915Z,21.70
2018-09-30T12:47:39.002Z,21.70
2018-09-30T12:48:44.421Z,21.70
2018-09-30T12:49:50.041Z,21.70
2018-09-30T12:50:56.032Z,21.70
2018-09-30T12:52:02.163Z,21.70
2018-09-30T12:53:07.898Z,21.70
2018-09-30T12:54:14.045Z,21.70
2018-09-30T12:55:19.411Z,21.60
2018-09-30T12:56:24.856Z,21.60
2018-09-30T12:57:30.248Z,21.60
2018-09-30T12:58:35.644Z,21.60
2018-09-30T12:59:41.618Z,21.50
2018-09-30T13:00:47.524Z,21.60
2018-09-30T13:01:52.970Z,21.50
2018-09-30T13:02:58.260Z,21.50
2018-09-30T13:04:04.093Z,21.40
2018-09-30T13:05:10.604Z,21.40
2018-09-30T13:06:16.921Z,21.40
2018-09-30T13:07:22.204Z,21.40
2018-09-30T13:08:28.823Z,21.40
2018-09-30T13:09:34.444Z,21.30
2018-09-30T13:10:40.543Z,21.30
2018-09-30T13:11:46.669Z,21.30
2018-09-30T13:12:52.226Z,21.30
2018-09-30T13:13:57.806Z,21.30
2018-09-30T13:15:03.790Z,21.30
2018-09-30T13:16:09.965Z,21.30
2018-09-30T13:17:16.642Z,21.30
2018-09-30T13:18:22.453Z,21.30
2018-09-30T13:19:28.061Z,21.30
2018-09-30T13:20:34.115Z,21.30
2018-09-30T13:21:39.692Z,21.30
2018-09-30T13:22:46.501Z,21.30
2018-09-30T13:23:51.930Z,21.30
2018-09-30T13:24:57.551Z,21.30
2018-09-30T13:26:03.454Z,21.30
2018-09-30T13:27:08.886Z,21.30
2018-09-30T13:28:15.214Z,21.30
2018-09-30T13:29:20.921Z,21.30
2018-09-30T13:30:26.523Z,21.30
2018-09-30T13:31:31.939Z,21.30
2018-09-30T13:32:37.306Z,21.30
2018-09-30T13:33:42.550Z,21.30
2018-09-30T13:34:47.810Z,21.30
2018-09-30T13:35:53.276Z,21.30
2018-09-30T13:36:58.555Z,21.30
2018-09-30T13:38:03.810Z,21.30
2018-09-30T13:39:09.151Z,21.30
2018-09-30T13:40:15.762Z,21.20
2018-09-30T13:41:22.764Z,21.20
2018-09-30T13:42:28.726Z,21.20
2018-09-30T13:43:35.304Z,21.20
2018-09-30T13:44:41.194Z,21.20
2018-09-30T13:45:47.040Z,21.20
2018-09-30T13:46:53.229Z,21.20
2018-09-30T13:47:59.252Z,21.20
2018-09-30T13:49:05.461Z,21.20
2018-09-30T13:50:10.908Z,21.20
2018-09-30T13:51:16.401Z,21.20
2018-09-30T13:52:22.388Z,21.10
2018-09-30T13:53:28.387Z,21.10
2018-09-30T13:54:33.977Z,21.10
2018-09-30T13:55:39.432Z,21.10
2018-09-30T13:56:45.033Z,21.10
2018-09-30T13:57:50.406Z,21.10
2018-09-30T13:58:56.036Z,21.10
2018-09-30T14:00:01.479Z,21.10
2018-09-30T14:01:07.341Z,21.10
2018-09-30T14:02:12.911Z,21.10
2018-09-30T14:03:19.181Z,21.10